Time;durP1;ratioP1;P1;durP2;ratioP2;P2;SDS_P1;SDS_P2;PMS_P1;PMS_P2;Temp;Humidity;BMP_temperature;BMP_pressure;BME280_temperature;BME280_humidity;BME280_pressure;Samples;Min_cycle;Max_cycle;Signal;HPM_P1;HPM_P2
2024/02/17 00:00:04;;;;;;;9.23;5.90;;;13.20;65.70;;;8.44;100.00;96202.34;4932076;29;20031;-53
2024/02/17 00:02:30;;;;;;;12.82;5.95;;;13.10;65.70;;;8.41;100.00;96205.47;4930168;29;20034;-53
2024/02/17 00:04:56;;;;;;;10.60;5.68;;;13.10;65.80;;;8.32;100.00;96199.69;4933270;29;20027;-55
2024/02/17 00:07:21;;;;;;;10.07;5.82;;;13.00;65.90;;;8.25;100.00;96209.63;4931381;29;20023;-54
2024/02/17 00:09:47;;;;;;;11.95;6.07;;;12.90;65.90;;;8.17;100.00;96200.19;4930631;29;20365;-55
2024/02/17 00:12:13;;;;;;;10.20;6.10;;;12.90;66.00;;;8.13;100.00;96208.84;4932035;29;20517;-50
2024/02/17 00:14:39;;;;;;;13.10;6.45;;;12.80;66.10;;;8.06;100.00;96209.78;4930671;29;20031;-53
2024/02/17 00:17:06;;;;;;;10.23;6.03;;;12.80;66.20;;;8.02;100.00;96215.78;4930181;29;20517;-54
2024/02/17 00:19:32;;;;;;;9.45;6.30;;;12.70;66.30;;;7.91;100.00;96214.75;4931925;29;20027;-53
2024/02/17 00:21:59;;;;;;;11.45;6.10;;;12.70;66.30;;;7.87;100.00;96219.72;4930237;29;20024;-54
2024/02/17 00:24:26;;;;;;;11.45;6.30;;;12.60;66.40;;;7.80;100.00;96218.22;4928255;29;20449;-52
2024/02/17 00:26:52;;;;;;;10.48;6.25;;;12.60;66.40;;;7.73;100.00;96222.81;4932071;29;20022;-56
2024/02/17 00:29:18;;;;;;;14.77;7.00;;;12.50;66.50;;;7.69;100.00;96229.66;4929842;29;20088;-50
2024/02/17 00:31:48;;;;;;;14.27;6.93;;;12.40;66.50;;;7.70;100.00;96224.09;4932286;29;20035;-56
2024/02/17 00:34:16;;;;;;;10.85;6.47;;;12.40;66.70;;;7.65;100.00;96230.09;4931825;29;20027;-51
2024/02/17 00:36:42;;;;;;;14.00;7.05;;;12.40;66.80;;;7.64;100.00;96231.13;4930188;29;20114;-52
2024/02/17 00:39:11;;;;;;;11.05;6.90;;;12.40;66.90;;;7.67;100.00;96235.16;4936417;28;20113;-52
2024/02/17 00:41:37;;;;;;;10.73;7.00;;;12.30;67.00;;;7.65;100.00;96231.94;4932790;29;20569;-53
2024/02/17 00:44:04;;;;;;;12.35;7.28;;;12.30;67.00;;;7.59;100.00;96232.88;4915462;29;20063;-55
2024/02/17 00:46:30;;;;;;;11.77;6.82;;;12.30;67.10;;;7.62;100.00;96237.72;4928427;29;20090;-52
2024/02/17 00:48:56;;;;;;;10.75;6.55;;;12.30;67.20;;;7.63;100.00;96239.31;4931628;29;20138;-50
2024/02/17 00:51:24;;;;;;;10.50;6.30;;;12.30;67.30;;;7.60;100.00;96239.78;4935219;29;20062;-52
2024/02/17 00:53:50;;;;;;;12.13;7.30;;;12.20;67.30;;;7.57;100.00;96246.34;4929829;29;20024;-52
2024/02/17 00:56:16;;;;;;;12.25;7.07;;;12.20;67.40;;;7.57;100.00;96242.88;4935175;28;20089;-50
2024/02/17 00:58:42;;;;;;;12.35;7.63;;;12.20;67.40;;;7.55;100.00;96250.25;4934260;29;20034;-53
2024/02/17 01:01:10;;;;;;;14.55;7.60;;;12.20;67.50;;;7.54;100.00;96252.09;4935091;29;20027;-51
2024/02/17 01:03:36;;;;;;;13.15;7.88;;;12.20;67.50;;;7.53;100.00;96253.16;4929981;29;20073;-55
2024/02/17 01:06:03;;;;;;;13.00;8.00;;;12.10;67.60;;;7.52;100.00;96248.88;4936648;28;20325;-54
2024/02/17 01:08:30;;;;;;;13.82;7.47;;;12.20;67.70;;;7.52;100.00;96250.69;4934213;29;20031;-52
2024/02/17 01:10:56;;;;;;;20.55;9.38;;;12.10;67.80;;;7.53;100.00;96250.50;4935757;28;20026;-54
2024/02/17 01:13:22;;;;;;;19.88;11.18;;;12.10;67.90;;;7.59;100.00;96254.88;4934583;29;20023;-54
2024/02/17 01:15:47;;;;;;;12.93;8.82;;;12.10;68.20;;;7.63;100.00;96263.97;4933850;28;20035;-53
2024/02/17 01:18:13;;;;;;;15.65;8.20;;;12.20;68.40;;;7.58;100.00;96249.78;4939435;28;20027;-54
2024/02/17 01:20:39;;;;;;;11.65;7.38;;;12.20;68.40;;;7.58;100.00;96255.94;4934852;29;20019;-54
2024/02/17 01:23:05;;;;;;;12.35;7.57;;;12.20;68.30;;;7.54;100.00;96260.06;4931305;29;20059;-53
2024/02/17 01:25:31;;;;;;;18.52;8.18;;;12.20;68.30;;;7.52;100.00;96262.13;4934840;28;20027;-55
2024/02/17 01:27:57;;;;;;;13.82;8.80;;;12.30;68.30;;;7.58;100.00;96263.88;4933761;28;20063;-55
2024/02/17 01:30:23;;;;;;;17.30;9.02;;;12.30;68.40;;;7.63;100.00;96268.47;4934686;28;20031;-53
2024/02/17 01:32:48;;;;;;;13.95;8.35;;;12.30;68.40;;;7.62;100.00;96274.84;4934020;29;20026;-51
2024/02/17 01:35:14;;;;;;;13.40;7.70;;;12.30;68.40;;;7.66;100.00;96268.03;4933330;29;20046;-54
2024/02/17 01:37:40;;;;;;;16.95;9.07;;;12.30;68.40;;;7.64;100.00;96273.53;4934435;29;20026;-51
2024/02/17 01:40:07;;;;;;;15.38;8.95;;;12.30;68.40;;;7.67;100.00;96276.78;4936670;28;20025;-52
2024/02/17 01:42:33;;;;;;;18.60;8.57;;;12.30;68.50;;;7.62;100.00;96277.47;4934170;28;20050;-53
2024/02/17 01:45:00;;;;;;;14.57;9.52;;;12.30;68.50;;;7.69;100.00;96277.38;4934324;28;20031;-58
2024/02/17 01:47:27;;;;;;;15.77;8.75;;;12.30;68.60;;;7.70;100.00;96268.38;4930927;28;20019;-53
2024/02/17 01:49:55;;;;;;;14.18;8.63;;;12.30;68.70;;;7.74;100.00;96283.59;4932221;28;20371;-52
2024/02/17 01:52:22;;;;;;;14.77;9.25;;;12.30;68.80;;;7.81;100.00;96275.53;4934505;28;20019;-54
2024/02/17 01:54:49;;;;;;;13.95;8.45;;;12.40;68.90;;;7.80;100.00;96277.38;4947738;28;20120;-53
2024/02/17 01:57:16;;;;;;;14.25;8.70;;;12.40;68.90;;;7.83;100.00;96273.44;4938401;28;20026;-52
2024/02/17 01:59:43;;;;;;;11.57;8.43;;;12.40;68.90;;;7.81;100.00;96275.53;4942090;28;20034;-52
2024/02/17 02:02:10;;;;;;;17.13;8.88;;;12.40;68.80;;;7.76;100.00;96273.56;4942007;28;20027;-52
2024/02/17 02:04:37;;;;;;;17.50;8.23;;;12.40;68.80;;;7.81;100.00;96279.00;4939984;28;20065;-53
2024/02/17 02:07:03;;;;;;;13.13;8.73;;;12.40;68.80;;;7.85;100.00;96276.69;4937695;28;20023;-53
2024/02/17 02:09:29;;;;;;;16.15;9.05;;;12.40;68.70;;;7.84;100.00;96278.53;4948613;28;20393;-53
2024/02/17 02:11:56;;;;;;;13.43;9.02;;;12.50;68.80;;;7.80;100.00;96288.00;4933849;28;20467;-51
2024/02/17 02:14:23;;;;;;;15.60;9.38;;;12.40;68.80;;;7.82;100.00;96279.81;4945475;28;20030;-51
2024/02/17 02:16:49;;;;;;;14.13;9.07;;;12.50;68.90;;;7.85;100.00;96282.78;4928885;28;20019;-50
2024/02/17 02:19:17;;;;;;;19.15;9.45;;;12.40;68.90;;;7.87;100.00;96279.94;4940773;28;20367;-51
2024/02/17 02:21:43;;;;;;;13.60;9.10;;;12.50;69.10;;;7.87;100.00;96277.28;4936641;28;20030;-54
2024/02/17 02:24:10;;;;;;;12.88;8.80;;;12.50;69.00;;;7.87;100.00;96287.88;4938575;28;20034;-55
2024/02/17 02:26:36;;;;;;;17.05;9.27;;;12.50;69.00;;;7.85;100.00;96284.66;4941298;28;20045;-50
2024/02/17 02:29:03;;;;;;;13.52;9.00;;;12.50;69.00;;;7.88;100.00;96292.16;4932664;28;20027;-55
2024/02/17 02:31:30;;;;;;;14.25;8.38;;;12.50;69.00;;;7.87;100.00;96288.69;4937363;28;20069;-55
2024/02/17 02:33:57;;;;;;;14.52;9.18;;;12.50;69.00;;;7.83;100.00;96292.00;4938505;28;20031;-50
2024/02/17 02:36:25;;;;;;;15.63;9.20;;;12.50;69.00;;;7.77;100.00;96303.53;4941978;28;20026;-51
2024/02/17 02:38:54;;;;;;;16.45;9.07;;;12.40;68.90;;;7.73;100.00;96299.75;4939001;28;20433;-51
2024/02/17 02:41:20;;;;;;;18.52;10.25;;;12.40;68.90;;;7.74;100.00;96301.34;4935596;28;20046;-49
2024/02/17 02:43:47;;;;;;;16.80;10.55;;;12.40;69.00;;;7.77;100.00;96300.88;4938566;28;20044;-54
2024/02/17 02:46:13;;;;;;;17.95;10.15;;;12.40;69.20;;;7.77;100.00;96312.31;4937832;28;20578;-54
2024/02/17 02:48:39;;;;;;;15.35;9.88;;;12.40;69.30;;;7.81;100.00;96307.38;4941259;28;20058;-55
2024/02/17 02:51:05;;;;;;;19.70;10.10;;;12.40;69.40;;;7.83;100.00;96310.59;4939462;28;20023;-51
2024/02/17 02:53:31;;;;;;;17.27;10.70;;;12.40;69.50;;;7.86;100.00;96312.78;4941551;28;20027;-52
2024/02/17 02:55:57;;;;;;;18.20;10.07;;;12.40;69.60;;;7.91;100.00;96312.09;4949746;28;20138;-53
2024/02/17 02:58:23;;;;;;;16.67;10.23;;;12.40;69.70;;;7.91;100.00;96306.81;4942413;28;20027;-53
2024/02/17 03:00:49;;;;;;;17.02;9.90;;;12.50;69.80;;;7.98;100.00;96307.50;4944387;28;20489;-51
2024/02/17 03:03:16;;;;;;;18.65;10.02;;;12.50;69.80;;;7.98;100.00;96310.13;4946759;28;20033;-51
2024/02/17 03:05:42;;;;;;;16.52;9.57;;;12.60;70.70;;;8.06;100.00;96315.13;4942928;28;20110;-54
2024/02/17 03:08:08;;;;;;;24.45;12.30;;;12.60;69.90;;;8.06;100.00;96309.81;4946712;28;20027;-49
2024/02/17 03:10:34;;;;;;;35.83;15.10;;;12.60;70.00;;;8.07;100.00;96314.88;4939034;28;20046;-52
2024/02/17 03:13:00;;;;;;;35.28;17.40;;;12.70;70.00;;;8.14;100.00;96314.75;4940675;28;20157;-55
2024/02/17 03:15:26;;;;;;;37.25;18.13;;;12.70;70.00;;;8.19;100.00;96316.72;4945410;28;20026;-52
2024/02/17 03:17:55;;;;;;;26.77;15.10;;;12.70;70.00;;;8.22;100.00;96321.56;4931546;28;20034;-57
2024/02/17 03:20:21;;;;;;;19.98;11.55;;;12.70;70.00;;;8.24;100.00;96325.63;4933064;29;20355;-50
2024/02/17 03:22:47;;;;;;;20.17;12.13;;;12.80;70.00;;;8.28;100.00;96324.09;4931575;29;20030;-51
2024/02/17 03:25:13;;;;;;;26.85;14.43;;;12.80;70.00;;;8.32;100.00;96325.25;4932513;29;20038;-52
2024/02/17 03:27:40;;;;;;;31.75;17.50;;;12.90;70.00;;;8.34;100.00;96331.16;4931624;29;20027;-51
2024/02/17 03:30:07;;;;;;;16.77;10.50;;;12.90;70.00;;;8.35;100.00;96329.28;4930599;29;20035;-51
2024/02/17 03:32:34;;;;;;;15.55;9.40;;;12.90;70.00;;;8.40;100.00;96333.94;4932582;29;20525;-51
2024/02/17 03:35:05;;;;;;;12.60;8.77;;;13.00;70.00;;;8.38;100.00;96333.34;4926590;29;20020;-52
2024/02/17 03:37:31;;;;;;;13.18;8.82;;;13.00;70.00;;;8.42;100.00;96335.31;4930924;29;20074;-53
2024/02/17 03:39:58;;;;;;;10.98;8.18;;;13.00;69.90;;;8.47;100.00;96337.28;4931453;29;20030;-52
2024/02/17 03:42:24;;;;;;;10.88;7.80;;;13.00;69.90;;;8.47;100.00;96343.41;4932497;29;20129;-53
2024/02/17 03:44:50;;;;;;;16.25;8.35;;;13.00;69.80;;;8.51;100.00;96338.44;4932521;28;20035;-51
2024/02/17 03:47:16;;;;;;;13.20;8.68;;;13.10;69.80;;;8.51;100.00;96344.53;4930106;29;20114;-50
2024/02/17 03:49:42;;;;;;;11.25;8.38;;;13.10;69.80;;;8.52;100.00;96348.00;4931819;29;20054;-51
2024/02/17 03:52:08;;;;;;;14.20;8.60;;;13.10;69.80;;;8.56;100.00;96344.66;4929010;28;20476;-51
2024/02/17 03:54:34;;;;;;;13.98;8.68;;;13.10;69.80;;;8.61;100.00;96345.81;4932118;29;20023;-53
2024/02/17 03:57:00;;;;;;;11.48;8.45;;;13.20;69.80;;;8.64;100.00;96354.13;4933064;28;20521;-54
2024/02/17 03:59:26;;;;;;;13.23;8.30;;;13.20;69.80;;;8.64;100.00;96350.66;4932683;29;20027;-53
2024/02/17 04:01:55;;;;;;;12.05;7.43;;;13.30;69.90;;;8.66;100.00;96357.34;4934457;28;20034;-55
2024/02/17 04:04:24;;;;;;;11.93;7.65;;;13.30;69.80;;;8.72;100.00;96361.72;4931442;29;20442;-51
2024/02/17 04:06:50;;;;;;;13.43;8.00;;;13.30;69.90;;;8.70;100.00;96361.16;4935584;28;20027;-58
2024/02/17 04:09:16;;;;;;;9.48;7.10;;;13.40;69.80;;;8.73;100.00;96358.03;4933117;29;20087;-51
2024/02/17 04:11:42;;;;;;;11.98;7.45;;;13.40;69.70;;;8.75;100.00;96360.47;4930761;29;20019;-58
2024/02/17 04:14:08;;;;;;;11.20;7.47;;;13.40;69.60;;;8.74;100.00;96367.63;4949562;28;20033;-54
2024/02/17 04:16:35;;;;;;;11.20;6.93;;;13.40;69.50;;;8.76;100.00;96370.03;4933881;28;20023;-53
2024/02/17 04:19:02;;;;;;;12.55;7.32;;;13.40;69.50;;;8.67;100.00;96364.28;4938140;28;20042;-50
2024/02/17 04:21:28;;;;;;;14.10;7.45;;;13.40;69.50;;;8.73;100.00;96381.94;4936590;28;20099;-55
2024/02/17 04:23:54;;;;;;;11.18;7.35;;;13.40;69.50;;;8.78;100.00;96384.72;4942082;28;20031;-56
2024/02/17 04:26:20;;;;;;;11.57;7.32;;;13.40;69.60;;;8.81;100.00;96388.75;4937361;28;20465;-51
2024/02/17 04:28:46;;;;;;;10.13;7.43;;;13.40;69.60;;;8.82;100.00;96393.00;4931378;29;20478;-55
2024/02/17 04:31:12;;;;;;;11.75;7.30;;;13.50;69.70;;;8.85;100.00;96395.22;4939682;28;20401;-53
2024/02/17 04:33:38;;;;;;;9.07;6.72;;;13.50;69.70;;;8.89;100.00;96395.53;4934723;29;20019;-58
2024/02/17 04:36:09;;;;;;;11.02;7.00;;;13.50;69.70;;;8.92;100.00;96398.53;4935146;29;20398;-54
2024/02/17 04:38:35;;;;;;;13.07;7.25;;;13.50;69.80;;;8.98;100.00;96408.22;4934025;29;20412;-55
2024/02/17 04:41:03;;;;;;;13.43;7.63;;;13.60;69.70;;;9.01;100.00;96401.66;4933094;28;20016;-55
2024/02/17 04:43:29;;;;;;;12.45;7.35;;;13.60;69.80;;;9.07;100.00;96407.88;4936903;28;20394;-51
2024/02/17 04:45:54;;;;;;;9.73;7.05;;;13.60;69.80;;;9.12;100.00;96408.78;4938398;28;20027;-51
2024/02/17 04:48:20;;;;;;;11.15;6.85;;;13.70;69.90;;;9.14;100.00;96411.22;4934305;28;20473;-55
2024/02/17 04:50:46;;;;;;;11.10;6.50;;;13.70;69.80;;;9.19;100.00;96413.97;4934184;28;20031;-55
2024/02/17 04:53:12;;;;;;;8.35;6.53;;;13.70;69.70;;;9.20;100.00;96415.59;4935542;28;20034;-50
2024/02/17 04:55:38;;;;;;;8.38;6.00;;;13.70;69.70;;;9.17;100.00;96418.72;4936220;28;20329;-55
2024/02/17 04:58:06;;;;;;;10.52;6.80;;;13.80;69.60;;;9.15;100.00;96423.44;4933743;29;20023;-55
2024/02/17 05:00:32;;;;;;;13.65;6.65;;;13.80;69.60;;;9.17;100.00;96414.19;4936256;28;20031;-52
2024/02/17 05:02:58;;;;;;;9.68;6.32;;;13.70;69.50;;;9.18;100.00;96418.50;4949364;23;20045;-52
2024/02/17 05:05:24;;;;;;;8.02;6.25;;;13.70;69.40;;;9.15;100.00;96416.31;4948129;28;20038;-50
2024/02/17 05:07:50;;;;;;;10.63;6.70;;;13.70;69.30;;;9.18;100.00;96426.47;4946186;28;20023;-50
2024/02/17 05:10:16;;;;;;;14.02;7.22;;;13.70;69.30;;;9.18;100.00;96422.97;4950730;28;20126;-50
2024/02/17 05:12:42;;;;;;;9.07;6.15;;;13.70;69.40;;;9.19;100.00;96424.63;4945044;28;20023;-52
2024/02/17 05:15:08;;;;;;;8.93;6.57;;;13.70;69.40;;;9.09;100.00;96425.22;4924841;29;20151;-48
2024/02/17 05:17:35;;;;;;;9.52;6.20;;;13.70;69.30;;;9.05;100.00;96429.34;4930649;28;20031;-49
2024/02/17 05:20:03;;;;;;;12.38;6.63;;;13.60;69.10;;;9.02;100.00;96427.16;4921513;29;20103;-48
2024/02/17 05:22:29;;;;;;;11.18;6.95;;;13.60;69.20;;;9.00;100.00;96435.38;4927092;29;20085;-50
2024/02/17 05:24:55;;;;;;;11.73;6.93;;;13.60;69.10;;;8.98;100.00;96428.69;4919985;29;20031;-48
2024/02/17 05:27:20;;;;;;;12.77;7.07;;;13.50;69.20;;;8.96;100.00;96423.63;4923823;28;20540;-49
2024/02/17 05:29:46;;;;;;;11.50;7.28;;;13.50;69.20;;;8.96;100.00;96430.75;4926747;28;20390;-48
2024/02/17 05:32:12;;;;;;;11.65;6.50;;;13.50;69.30;;;8.93;100.00;96442.69;4926666;29;20031;-49
2024/02/17 05:34:41;;;;;;;11.63;7.20;;;13.50;69.30;;;8.92;100.00;96435.75;4923021;29;20038;-52
2024/02/17 05:37:07;;;;;;;9.60;7.00;;;13.50;69.30;;;8.88;100.00;96436.44;4923795;29;20026;-48
2024/02/17 05:39:34;;;;;;;12.32;7.80;;;13.50;69.30;;;8.85;100.00;96450.19;4927433;29;20031;-48
2024/02/17 05:42:01;;;;;;;10.25;6.97;;;13.50;69.20;;;8.76;100.00;96447.06;4922439;29;20035;-48
2024/02/17 05:44:27;;;;;;;11.35;7.10;;;13.50;70.00;;;8.77;100.00;96444.19;4926126;29;20035;-48
2024/02/17 05:46:53;;;;;;;11.52;7.82;;;13.40;69.20;;;8.76;100.00;96452.38;4918724;29;20051;-51
2024/02/17 05:49:21;;;;;;;12.55;7.55;;;13.40;69.20;;;8.74;100.00;96454.47;4927762;29;20126;-48
2024/02/17 05:51:51;;;;;;;13.27;7.88;;;13.40;69.30;;;8.72;100.00;96457.34;4925157;29;20500;-48
2024/02/17 05:54:19;;;;;;;14.95;7.63;;;13.30;69.30;;;8.72;100.00;96461.88;4924570;29;20600;-48
2024/02/17 05:56:45;;;;;;;14.30;8.27;;;13.30;69.30;;;8.64;100.00;96460.34;4923798;29;20168;-48
2024/02/17 05:59:13;;;;;;;11.15;7.28;;;13.30;69.50;;;8.67;100.00;96464.41;4923253;29;20431;-51
2024/02/17 06:01:41;;;;;;;13.23;8.10;;;13.30;69.50;;;8.67;100.00;96469.72;4924104;29;20163;-50
2024/02/17 06:04:08;;;;;;;12.77;7.82;;;13.30;69.60;;;8.71;100.00;96474.34;4926491;29;20047;-51
2024/02/17 06:06:35;;;;;;;11.30;7.90;;;13.30;69.70;;;8.73;100.00;96474.91;4925804;29;20028;-48
2024/02/17 06:09:01;;;;;;;9.85;7.53;;;13.30;69.70;;;8.74;100.00;96476.53;4925373;29;20058;-52
2024/02/17 06:11:27;;;;;;;9.70;7.70;;;13.30;69.70;;;8.70;100.00;96471.91;4922748;29;20055;-52
2024/02/17 06:13:53;;;;;;;9.90;7.70;;;13.30;69.70;;;8.71;100.00;96481.47;4924027;29;20082;-52
2024/02/17 06:16:19;;;;;;;10.75;8.13;;;13.30;69.60;;;8.72;100.00;96480.47;4922793;29;20062;-48
2024/02/17 06:21:30;;;;;;;12.65;7.78;;;13.40;69.70;;;8.72;100.00;96483.91;4928204;29;20090;-48
2024/02/17 06:23:57;;;;;;;13.13;7.95;;;13.30;69.70;;;8.75;100.00;96490.63;4926039;29;20426;-48
2024/02/17 06:26:29;;;;;;;11.65;8.02;;;13.30;69.70;;;8.72;100.00;96486.56;4920085;29;20023;-49
2024/02/17 06:28:59;;;;;;;11.05;8.35;;;13.30;69.80;;;8.75;100.00;96486.13;4924895;29;20062;-48
2024/02/17 06:31:25;;;;;;;10.50;7.40;;;13.30;69.80;;;8.79;100.00;96494.44;4926881;29;20025;-48
2024/02/17 06:33:53;;;;;;;13.45;8.07;;;13.30;69.80;;;8.81;100.00;96500.34;4920920;29;20132;-48
2024/02/17 06:36:21;;;;;;;10.23;7.50;;;13.40;70.00;;;8.82;100.00;96501.94;4928540;29;20034;-50
2024/02/17 06:38:50;;;;;;;12.50;7.72;;;13.40;69.90;;;8.84;100.00;96507.84;4917886;29;20035;-48
2024/02/17 06:41:20;;;;;;;11.85;7.93;;;13.40;69.90;;;8.86;100.00;96502.28;4924804;29;20047;-48
2024/02/17 06:43:48;;;;;;;11.93;7.10;;;13.40;69.90;;;8.87;100.00;96509.22;4923462;29;20050;-48
2024/02/17 06:46:15;;;;;;;11.30;7.70;;;13.40;69.90;;;8.88;100.00;96506.34;4923387;29;20106;-51
2024/02/17 06:48:42;;;;;;;14.20;8.10;;;13.50;69.90;;;8.92;100.00;96510.13;4926165;29;20026;-52
2024/02/17 06:51:11;;;;;;;13.02;8.20;;;13.50;69.90;;;8.96;100.00;96521.09;4926664;29;20026;-50
2024/02/17 06:53:37;;;;;;;13.07;7.43;;;13.50;70.00;;;8.96;100.00;96513.97;4943703;28;20069;-49
2024/02/17 06:56:04;;;;;;;11.77;7.90;;;13.50;69.90;;;8.99;100.00;96518.00;4927299;29;20023;-48
2024/02/17 06:58:30;;;;;;;10.68;7.18;;;13.60;69.90;;;9.02;100.00;96514.88;4923179;29;20101;-48
2024/02/17 07:00:56;;;;;;;11.93;7.70;;;13.60;69.90;;;9.04;100.00;96520.78;4924500;29;20114;-48
2024/02/17 07:03:22;;;;;;;11.07;7.63;;;13.60;69.80;;;9.04;100.00;96524.22;4927633;29;20041;-51
2024/02/17 07:05:47;;;;;;;12.20;7.60;;;13.70;69.90;;;9.08;100.00;96527.22;4924758;29;20413;-48
2024/02/17 07:08:14;;;;;;;9.43;7.13;;;13.70;69.90;;;9.11;100.00;96534.75;4922071;29;20112;-55
2024/02/17 07:10:40;;;;;;;9.25;7.47;;;13.70;69.80;;;9.13;100.00;96537.19;4927943;29;20035;-55
2024/02/17 07:13:12;;;;;;;11.55;7.95;;;13.70;69.80;;;9.16;100.00;96531.41;4924486;29;20083;-52
2024/02/17 07:15:38;;;;;;;9.80;7.43;;;13.80;69.80;;;9.19;100.00;96536.25;4924086;29;20178;-53
2024/02/17 07:18:05;;;;;;;14.00;8.32;;;13.80;69.70;;;9.21;100.00;96540.31;4925311;29;20114;-53
2024/02/17 07:20:32;;;;;;;9.48;7.25;;;13.80;69.70;;;9.22;100.00;96543.78;4921937;29;20086;-52
2024/02/17 07:23:01;;;;;;;13.90;7.43;;;13.90;69.80;;;9.26;100.00;96547.56;4925256;29;20035;-55
2024/02/17 07:25:29;;;;;;;13.88;8.32;;;13.90;69.80;;;9.27;100.00;96549.19;4919036;29;20357;-55
2024/02/17 07:27:57;;;;;;;10.10;7.20;;;13.90;69.70;;;9.25;100.00;96554.75;4925959;28;20549;-52
2024/02/17 07:30:27;;;;;;;11.00;6.85;;;13.90;70.40;;;9.23;100.00;96553.34;4925917;29;20173;-54
2024/02/17 07:32:54;;;;;;;11.13;7.35;;;13.90;69.70;;;9.24;100.00;96560.28;4919823;29;20024;-53
2024/02/17 07:35:24;;;;;;;11.15;6.93;;;13.90;70.50;;;9.31;100.00;96557.50;4945392;28;20595;-52
2024/02/17 07:37:50;;;;;;;13.75;7.63;;;13.90;69.60;;;9.36;100.00;96568.25;4922484;29;20028;-53
2024/02/17 07:40:16;;;;;;;14.23;7.65;;;14.00;69.80;;;9.39;100.00;96576.56;4923396;29;20023;-53
2024/02/17 07:42:42;;;;;;;11.32;8.27;;;14.00;69.80;;;9.42;100.00;96580.63;4922019;29;20027;-53
2024/02/17 07:45:09;;;;;;;9.63;7.22;;;14.00;69.70;;;9.46;100.00;96579.09;4922024;29;20111;-55
2024/02/17 07:47:34;;;;;;;10.07;7.07;;;14.10;69.80;;;9.49;100.00;96576.81;4922170;29;20398;-56
2024/02/17 07:50:05;;;;;;;10.90;7.20;;;14.10;69.70;;;9.54;100.00;96580.63;4933626;28;20090;-53
2024/02/17 07:52:31;;;;;;;10.75;7.57;;;14.20;69.70;;;9.59;100.00;96592.19;4927506;29;20501;-54
2024/02/17 07:54:57;;;;;;;9.05;6.80;;;14.30;69.60;;;9.63;100.00;96592.53;4929430;29;20030;-55
2024/02/17 07:57:23;;;;;;;15.95;7.57;;;14.30;69.50;;;9.63;100.00;96593.31;4927175;29;20077;-53
2024/02/17 07:59:49;;;;;;;11.63;7.10;;;14.30;69.40;;;9.68;100.00;96593.44;4927118;29;20030;-50
2024/02/17 08:02:15;;;;;;;10.02;7.50;;;14.40;69.40;;;9.72;100.00;96599.91;4925981;29;20031;-52
2024/02/17 08:04:42;;;;;;;10.65;8.60;;;14.40;69.30;;;9.75;100.00;96609.28;4927928;29;20046;-53
2024/02/17 08:07:08;;;;;;;11.65;8.77;;;14.50;69.30;;;9.78;100.00;96619.47;4926317;29;20027;-52
2024/02/17 08:09:34;;;;;;;11.07;9.00;;;14.50;69.30;;;9.81;100.00;96623.47;4928007;29;20130;-53
2024/02/17 08:12:00;;;;;;;13.25;10.15;;;14.60;69.30;;;9.83;100.00;96619.53;4924875;29;20568;-51
2024/02/17 08:14:26;;;;;;;11.68;9.02;;;14.60;70.00;;;9.87;100.00;96620.72;4927523;29;20042;-50
2024/02/17 08:16:52;;;;;;;13.10;7.60;;;14.60;69.20;;;9.92;100.00;96628.78;4929351;29;20454;-49
2024/02/17 08:19:18;;;;;;;10.77;8.35;;;14.70;69.20;;;9.98;100.00;96628.91;4926634;29;20043;-52
2024/02/17 08:21:44;;;;;;;14.10;7.88;;;14.80;69.20;;;10.02;100.00;96636.16;4928701;29;20019;-58
2024/02/17 08:24:10;;;;;;;10.25;7.82;;;14.80;69.10;;;10.04;100.00;96631.44;4929400;29;20031;-49
2024/02/17 08:26:36;;;;;;;10.93;8.05;;;14.90;69.10;;;10.06;100.00;96637.34;4928359;29;20134;-52
2024/02/17 08:29:01;;;;;;;12.07;8.05;;;14.90;69.00;;;10.09;100.00;96644.84;4927601;29;20039;-52
2024/02/17 08:31:27;;;;;;;12.98;8.70;;;14.90;69.00;;;10.10;100.00;96643.00;4927514;29;20034;-59
2024/02/17 08:33:53;;;;;;;17.17;11.65;;;14.90;68.90;;;10.13;100.00;96648.66;4927026;29;20029;-52
2024/02/17 08:36:19;;;;;;;13.25;7.85;;;15.00;69.00;;;10.13;100.00;96650.50;4926476;29;20031;-53
2024/02/17 08:38:45;;;;;;;12.32;7.93;;;14.90;69.60;;;10.16;100.00;96652.72;4924386;29;20027;-52
2024/02/17 08:41:12;;;;;;;14.50;8.00;;;15.00;68.90;;;10.17;100.00;96649.78;4928207;29;20122;-54
2024/02/17 08:43:38;;;;;;;15.25;7.80;;;15.00;68.90;;;10.15;100.00;96649.25;4931918;29;20407;-52
2024/02/17 08:46:04;;;;;;;11.70;8.80;;;15.00;68.90;;;10.15;100.00;96657.22;4924567;29;20023;-52
2024/02/17 08:48:32;;;;;;;11.70;8.13;;;15.00;68.90;;;10.20;100.00;96659.97;4925036;29;20031;-50
2024/02/17 08:50:58;;;;;;;11.15;7.70;;;15.00;68.90;;;10.23;100.00;96660.56;4925799;29;20038;-53
2024/02/17 08:53:24;;;;;;;11.73;7.90;;;15.00;69.00;;;10.23;100.00;96663.22;4926912;29;20027;-51
2024/02/17 08:55:50;;;;;;;12.82;8.45;;;15.00;69.00;;;10.23;100.00;96663.22;4923777;29;20167;-52
2024/02/17 08:58:15;;;;;;;12.23;8.32;;;15.00;69.00;;;10.23;100.00;96668.53;4924202;29;20114;-50
2024/02/17 09:00:42;;;;;;;14.82;8.73;;;15.00;69.00;;;10.23;100.00;96673.88;4922890;29;20028;-50
2024/02/17 09:03:08;;;;;;;13.25;7.47;;;15.00;69.00;;;10.27;100.00;96673.19;4927330;29;20035;-51
2024/02/17 09:05:35;;;;;;;12.02;8.45;;;15.00;69.10;;;10.26;100.00;96676.91;4930563;29;20089;-53
2024/02/17 09:08:01;;;;;;;11.95;8.60;;;15.10;69.20;;;10.31;100.00;96674.34;4930193;29;20042;-56
2024/02/17 09:10:27;;;;;;;12.02;8.50;;;15.00;69.20;;;10.38;100.00;96676.88;4925024;28;20066;-53
2024/02/17 09:12:53;;;;;;;12.23;8.05;;;15.10;69.30;;;10.39;100.00;96681.94;4933633;29;20027;-49
2024/02/17 09:15:19;;;;;;;12.43;8.75;;;15.10;69.30;;;10.42;100.00;96686.00;4923285;29;20031;-54
2024/02/17 09:17:46;;;;;;;13.90;8.35;;;15.20;69.40;;;10.46;100.00;96689.00;4927200;29;20406;-49
2024/02/17 09:20:12;;;;;;;11.82;8.60;;;15.20;69.40;;;10.52;100.00;96693.38;4929806;28;20397;-51
2024/02/17 09:22:38;;;;;;;12.15;7.90;;;15.30;69.50;;;10.54;100.00;96700.09;4925254;29;20031;-51
2024/02/17 09:25:05;;;;;;;12.13;8.23;;;15.30;69.40;;;10.57;100.00;96698.81;4930039;29;20042;-51
2024/02/17 09:27:31;;;;;;;11.27;7.70;;;15.40;69.50;;;10.58;100.00;96705.75;4922529;29;20026;-50
2024/02/17 09:29:56;;;;;;;11.40;7.47;;;15.40;69.40;;;10.59;100.00;96705.53;4926649;28;20031;-54
2024/02/17 09:32:22;;;;;;;10.13;7.75;;;15.40;69.40;;;10.60;100.00;96715.13;4929835;28;20110;-50
2024/02/17 09:34:48;;;;;;;9.23;6.75;;;15.40;69.50;;;10.59;100.00;96716.19;4927055;29;20584;-53
2024/02/17 09:37:14;;;;;;;8.95;7.13;;;15.40;69.40;;;10.62;100.00;96723.72;4929154;29;20031;-50
2024/02/17 09:39:41;;;;;;;8.98;6.43;;;15.40;69.40;;;10.62;100.00;96723.72;4925610;29;20027;-54
2024/02/17 09:42:08;;;;;;;9.25;6.35;;;15.50;69.40;;;10.62;100.00;96730.88;4930733;29;20474;-50
2024/02/17 09:44:34;;;;;;;10.63;7.20;;;15.40;69.30;;;10.66;100.00;96729.38;4930943;28;20035;-50
2024/02/17 09:47:00;;;;;;;8.55;5.85;;;15.40;69.40;;;10.68;100.00;96729.94;4931261;28;20054;-50
2024/02/17 09:49:27;;;;;;;7.18;5.35;;;15.50;69.50;;;10.71;100.00;96739.31;4924486;29;20121;-53
2024/02/17 09:51:55;;;;;;;7.05;5.57;;;15.50;69.50;;;10.71;100.00;96739.31;4922887;29;20435;-54
2024/02/17 09:54:22;;;;;;;6.38;4.90;;;15.50;69.50;;;10.76;100.00;96747.41;4926974;29;20494;-50
2024/02/17 09:56:51;;;;;;;3.88;3.35;;;15.50;69.50;;;10.71;100.00;96749.97;4934713;28;20154;-53
2024/02/17 09:59:17;;;;;;;2.78;2.47;;;15.50;69.50;;;10.52;100.00;96752.00;4924771;29;20106;-53
2024/02/17 10:01:47;;;;;;;1.95;1.83;;;15.60;69.20;;;10.35;100.00;96766.03;4924185;29;20517;-51
2024/02/17 10:04:13;;;;;;;1.67;1.58;;;15.60;68.70;;;10.26;100.00;96779.91;4927013;29;20048;-51
2024/02/17 10:06:40;;;;;;;1.88;1.73;;;15.50;68.40;;;10.20;100.00;96776.31;4923938;28;20465;-52
2024/02/17 10:09:06;;;;;;;2.65;1.88;;;15.40;68.30;;;10.09;100.00;96777.13;4945568;28;20050;-51
2024/02/17 10:11:33;;;;;;;2.75;1.70;;;15.40;68.10;;;10.05;100.00;96776.78;4926015;29;20106;-52